Time;durP1;ratioP1;P1;durP2;ratioP2;P2;SDS_P1;SDS_P2;PMS_P1;PMS_P2;Temp;Humidity;BMP_temperature;BMP_pressure;BME280_temperature;BME280_humidity;BME280_pressure;Samples;Min_cycle;Max_cycle;Signal;HPM_P1;HPM_P2
2022/01/21 00:00:42;;;;;;;13.65;2.08;;;;;;;;;;5133502;27;20053;-79
2022/01/21 00:03:08;;;;;;;13.73;2.00;;;;;;;;;;5133395;27;20116;-79
2022/01/21 00:05:34;;;;;;;12.05;1.83;;;;;;;;;;5133383;27;20127;-77
2022/01/21 00:08:00;;;;;;;16.73;1.98;;;;;;;;;;5133208;27;20135;-78
2022/01/21 00:10:26;;;;;;;19.65;2.08;;;;;;;;;;5115052;28;20487;-78
2022/01/21 00:12:53;;;;;;;17.95;2.10;;;;;;;;;;5133465;28;20101;-77
2022/01/21 00:15:20;;;;;;;15.93;2.22;;;;;;;;;;5133278;28;20042;-78
2022/01/21 00:17:46;;;;;;;13.85;1.77;;;;;;;;;;5133545;28;20050;-79
2022/01/21 00:31:11;;;;;;;15.88;2.20;;;;;;;;;;5133458;28;20054;-79
2022/01/21 00:33:37;;;;;;;18.63;2.63;;;;;;;;;;5114755;28;20039;-80
2022/01/21 00:36:05;;;;;;;21.77;3.10;;;;;;;;;;5133055;28;20039;-78
2022/01/21 00:38:32;;;;;;;20.63;2.70;;;;;;;;;;5133272;28;20047;-79
2022/01/21 00:41:02;;;;;;;18.40;2.60;;;;;;;;;;5133466;28;20070;-79
2022/01/21 00:43:32;;;;;;;17.10;2.90;;;;;;;;;;5133153;28;20043;-80
2022/01/21 00:45:59;;;;;;;22.80;3.60;;;;;;;;;;5115120;28;20059;-77
2022/01/21 00:48:25;;;;;;;17.95;3.13;;;;;;;;;;5133215;28;20043;-79
2022/01/21 00:50:52;;;;;;;16.67;2.47;;;;;;;;;;5132795;28;20122;-79
2022/01/21 00:53:18;;;;;;;22.05;3.00;;;;;;;;;;5133275;28;20039;-79
2022/01/21 00:55:44;;;;;;;19.83;2.63;;;;;;;;;;5133546;27;20175;-79
2022/01/21 00:58:10;;;;;;;22.17;2.92;;;;;;;;;;5137010;27;20062;-80
2022/01/21 01:00:36;;;;;;;24.75;2.72;;;;;;;;;;5136903;27;20049;-78
2022/01/21 01:03:03;;;;;;;18.33;2.42;;;;;;;;;;5136763;27;20038;-79
2022/01/21 01:05:29;;;;;;;18.00;2.47;;;;;;;;;;5136486;27;20070;-79
2022/01/21 01:07:55;;;;;;;20.00;2.70;;;;;;;;;;5118612;27;20050;-77
2022/01/21 01:21:22;;;;;;;16.38;2.60;;;;;;;;;;5136387;27;20051;-79
2022/01/21 01:24:02;;;;;;;27.33;3.15;;;;;;;;;;5136437;27;20035;-79
2022/01/21 01:29:14;;;;;;;24.58;2.97;;;;;;;;;;5136501;27;20100;-79
2022/01/21 01:31:41;;;;;;;22.80;3.08;;;;;;;;;;5118133;27;20095;-79
2022/01/21 01:34:07;;;;;;;16.48;2.20;;;;;;;;;;5136249;27;20091;-78
2022/01/21 01:36:34;;;;;;;23.10;2.85;;;;;;;;;;5117713;27;20081;-79
2022/01/21 01:41:37;;;;;;;19.67;2.50;;;;;;;;;;5136083;27;20442;-79
2022/01/21 01:49:36;;;;;;;15.60;2.35;;;;;;;;;;5136022;27;20138;-78
2022/01/21 01:52:04;;;;;;;13.13;1.85;;;;;;;;;;5135943;27;20069;-79
2022/01/21 01:54:31;;;;;;;14.13;2.00;;;;;;;;;;5135765;27;20043;-78
2022/01/21 01:56:58;;;;;;;15.75;2.40;;;;;;;;;;5135735;27;20126;-78
2022/01/21 01:59:25;;;;;;;14.57;1.85;;;;;;;;;;5100466;27;20083;-79
2022/01/21 02:01:57;;;;;;;15.70;1.65;;;;;;;;;;5135781;27;20047;-78
2022/01/21 02:04:24;;;;;;;11.90;1.75;;;;;;;;;;5117490;27;20039;-78
2022/01/21 02:06:51;;;;;;;15.88;1.65;;;;;;;;;;5135413;27;20059;-78
2022/01/21 02:09:17;;;;;;;9.80;1.30;;;;;;;;;;5116882;27;20541;-78
2022/01/21 02:11:43;;;;;;;13.95;1.63;;;;;;;;;;5117230;27;20035;-78
2022/01/21 02:14:14;;;;;;;11.70;1.15;;;;;;;;;;5135374;27;20117;-78
2022/01/21 02:17:11;;;;;;;15.63;1.60;;;;;;;;;;5135377;27;20092;-79
2022/01/21 02:22:14;;;;;;;11.95;1.60;;;;;;;;;;5135211;27;20047;-78
2022/01/21 02:27:13;;;;;;;12.30;1.23;;;;;;;;;;5135391;27;20046;-78
2022/01/21 02:29:51;;;;;;;12.20;1.70;;;;;;;;;;5135091;27;20105;-79
2022/01/21 02:32:18;;;;;;;11.90;1.42;;;;;;;;;;5135169;27;20074;-79
2022/01/21 02:34:44;;;;;;;15.75;1.70;;;;;;;;;;5135095;27;20043;-78
2022/01/21 02:37:12;;;;;;;13.98;1.52;;;;;;;;;;5135124;27;20384;-79
2022/01/21 02:39:38;;;;;;;12.45;1.73;;;;;;;;;;5135184;27;20045;-78
2022/01/21 02:42:05;;;;;;;13.45;1.52;;;;;;;;;;5134890;27;20122;-79
2022/01/21 02:44:31;;;;;;;18.08;2.30;;;;;;;;;;5116727;27;20121;-79
2022/01/21 02:47:00;;;;;;;17.60;2.13;;;;;;;;;;5134788;27;20043;-79
2022/01/21 02:49:27;;;;;;;19.73;2.10;;;;;;;;;;5134783;27;20376;-80
2022/01/21 02:51:54;;;;;;;17.95;2.28;;;;;;;;;;5135048;27;20035;-80
2022/01/21 02:54:20;;;;;;;17.52;2.22;;;;;;;;;;5116559;27;20506;-78
2022/01/21 02:56:46;;;;;;;22.17;2.53;;;;;;;;;;5134550;27;20039;-80
2022/01/21 02:59:13;;;;;;;20.55;2.55;;;;;;;;;;5134435;27;20121;-79
2022/01/21 03:01:41;;;;;;;17.58;1.88;;;;;;;;;;5116480;27;20043;-79
2022/01/21 03:04:09;;;;;;;19.23;2.38;;;;;;;;;;5134443;27;20047;-79
2022/01/21 03:06:37;;;;;;;15.18;2.22;;;;;;;;;;5134464;27;20441;-79
2022/01/21 03:09:04;;;;;;;17.05;1.60;;;;;;;;;;5134124;27;20126;-79
2022/01/21 03:11:30;;;;;;;14.43;1.67;;;;;;;;;;5134444;27;20126;-80
2022/01/21 03:13:56;;;;;;;17.15;1.77;;;;;;;;;;5115881;27;20051;-79
2022/01/21 03:16:23;;;;;;;16.05;1.98;;;;;;;;;;5134075;27;20039;-78
2022/01/21 03:18:49;;;;;;;14.15;1.50;;;;;;;;;;5134112;27;20039;-79
2022/01/21 03:21:16;;;;;;;19.13;1.77;;;;;;;;;;5133590;27;20130;-80
2022/01/21 03:23:46;;;;;;;17.20;1.45;;;;;;;;;;5134241;27;20047;-81
2022/01/21 03:26:14;;;;;;;14.43;1.38;;;;;;;;;;5115698;27;20039;-80
2022/01/21 03:28:41;;;;;;;15.80;1.60;;;;;;;;;;5134070;27;20205;-79
2022/01/21 03:31:07;;;;;;;14.65;1.48;;;;;;;;;;5115767;27;20403;-80
2022/01/21 03:33:33;;;;;;;17.08;2.10;;;;;;;;;;5134182;27;20087;-78
2022/01/21 03:35:59;;;;;;;10.85;1.35;;;;;;;;;;5115479;27;20042;-80
2022/01/21 03:38:27;;;;;;;13.02;1.58;;;;;;;;;;5115861;27;20121;-79
2022/01/21 03:40:53;;;;;;;13.80;1.60;;;;;;;;;;5115783;27;20051;-77
2022/01/21 03:43:21;;;;;;;12.07;1.63;;;;;;;;;;5115661;27;20047;-79
2022/01/21 03:45:47;;;;;;;10.38;1.27;;;;;;;;;;5133673;27;20051;-79
2022/01/21 03:50:58;;;;;;;12.20;1.30;;;;;;;;;;5115114;27;20384;-79
2022/01/21 03:53:24;;;;;;;13.70;1.33;;;;;;;;;;5133536;27;20131;-79
2022/01/21 03:55:50;;;;;;;10.25;1.20;;;;;;;;;;5115366;28;20465;-80
2022/01/21 03:58:17;;;;;;;11.40;1.30;;;;;;;;;;5098368;27;20472;-80
2022/01/21 04:00:44;;;;;;;12.18;1.20;;;;;;;;;;5115433;28;20046;-79
2022/01/21 04:03:10;;;;;;;11.25;1.42;;;;;;;;;;5133811;27;20043;-78
2022/01/21 04:05:37;;;;;;;11.55;1.27;;;;;;;;;;5115169;27;20089;-79
2022/01/21 04:08:04;;;;;;;10.27;1.30;;;;;;;;;;5133628;27;20050;-79
2022/01/21 04:10:30;;;;;;;14.57;1.50;;;;;;;;;;5114971;28;20047;-79
2022/01/21 04:12:57;;;;;;;9.88;1.08;;;;;;;;;;5115035;28;20043;-79
2022/01/21 04:15:23;;;;;;;7.57;1.00;;;;;;;;;;5133507;28;20043;-79
2022/01/21 04:17:50;;;;;;;11.15;1.10;;;;;;;;;;5114955;28;20043;-80
2022/01/21 04:20:17;;;;;;;11.23;1.10;;;;;;;;;;5133536;28;20042;-79
2022/01/21 04:22:43;;;;;;;13.57;1.67;;;;;;;;;;5133157;28;20066;-79
2022/01/21 04:25:09;;;;;;;10.38;0.80;;;;;;;;;;5115181;28;20083;-79
2022/01/21 04:27:36;;;;;;;11.77;1.40;;;;;;;;;;5133262;28;20440;-79
2022/01/21 04:30:04;;;;;;;12.07;1.05;;;;;;;;;;5133516;28;20039;-78
2022/01/21 04:32:30;;;;;;;12.25;1.30;;;;;;;;;;5136885;27;20047;-79
2022/01/21 04:34:56;;;;;;;13.20;1.20;;;;;;;;;;5137556;27;20043;-78
2022/01/21 04:37:22;;;;;;;12.25;1.23;;;;;;;;;;5137228;27;20043;-79
2022/01/21 04:39:55;;;;;;;10.00;1.30;;;;;;;;;;5137284;27;20039;-78
2022/01/21 04:47:51;;;;;;;10.52;1.40;;;;;;;;;;5137157;27;20047;-78
2022/01/21 04:50:17;;;;;;;10.55;1.38;;;;;;;;;;5137013;27;20043;-79
2022/01/21 04:52:43;;;;;;;10.73;1.17;;;;;;;;;;5119075;27;20095;-79
2022/01/21 04:55:09;;;;;;;11.95;1.17;;;;;;;;;;5118814;27;20266;-78
2022/01/21 04:57:35;;;;;;;10.80;1.27;;;;;;;;;;5118683;27;20088;-78
2022/01/21 05:00:02;;;;;;;10.90;1.38;;;;;;;;;;5102097;27;20043;-79
2022/01/21 05:02:29;;;;;;;9.75;1.30;;;;;;;;;;5136882;27;20101;-78
2022/01/21 05:04:55;;;;;;;9.02;1.23;;;;;;;;;;5118613;27;20046;-78
2022/01/21 05:07:24;;;;;;;12.38;1.45;;;;;;;;;;5136432;27;20073;-78
2022/01/21 05:10:06;;;;;;;11.85;1.30;;;;;;;;;;5136794;27;20100;-77
2022/01/21 05:12:32;;;;;;;13.73;1.25;;;;;;;;;;5136760;27;20567;-78
2022/01/21 05:17:25;;;;;;;10.98;1.40;;;;;;;;;;5136355;27;20039;-78
2022/01/21 05:19:52;;;;;;;13.75;1.58;;;;;;;;;;5136641;27;20039;-78
2022/01/21 05:22:19;;;;;;;11.43;1.40;;;;;;;;;;5136521;27;20051;-78
2022/01/21 05:24:45;;;;;;;11.60;1.45;;;;;;;;;;5136493;27;20035;-78
2022/01/21 05:27:12;;;;;;;10.93;1.58;;;;;;;;;;5136415;27;20043;-78
2022/01/21 05:29:39;;;;;;;12.57;1.48;;;;;;;;;;5136373;27;20051;-78
2022/01/21 05:32:06;;;;;;;12.20;1.50;;;;;;;;;;5136225;27;20548;-79
2022/01/21 05:34:32;;;;;;;14.45;1.33;;;;;;;;;;5118105;27;20455;-78
2022/01/21 05:36:58;;;;;;;15.68;1.70;;;;;;;;;;5136201;27;20551;-78
2022/01/21 05:39:25;;;;;;;14.68;1.58;;;;;;;;;;5136058;27;20050;-79
2022/01/21 05:41:52;;;;;;;10.52;1.20;;;;;;;;;;5136062;27;20050;-79
2022/01/21 05:46:26;;;;;;;19.35;1.58;;;;;;;;;;5135214;27;20043;-79
2022/01/21 05:47:07;;;;;;;13.95;1.75;;;;;;;;;;5117960;27;20049;-79
2022/01/21 05:49:35;;;;;;;17.83;2.17;;;;;;;;;;5136132;27;20050;-79
2022/01/21 05:52:15;;;;;;;12.32;1.70;;;;;;;;;;5135777;27;20123;-79
2022/01/21 05:54:43;;;;;;;16.35;1.70;;;;;;;;;;5135969;27;20049;-79
2022/01/21 05:57:12;;;;;;;13.07;1.70;;;;;;;;;;5117244;27;20089;-79
2022/01/21 05:59:38;;;;;;;14.20;1.40;;;;;;;;;;5135828;27;20078;-78
2022/01/21 06:02:05;;;;;;;18.35;2.50;;;;;;;;;;5136007;27;20605;-79
2022/01/21 06:04:32;;;;;;;16.85;1.80;;;;;;;;;;5117563;27;20039;-79
2022/01/21 06:07:00;;;;;;;16.63;1.90;;;;;;;;;;5135673;27;20039;-79
2022/01/21 06:09:26;;;;;;;17.85;2.00;;;;;;;;;;5135470;27;20058;-79
2022/01/21 06:11:52;;;;;;;17.85;2.13;;;;;;;;;;5117616;27;20051;-79
2022/01/21 06:14:18;;;;;;;11.05;1.77;;;;;;;;;;5117488;27;20047;-79
2022/01/21 06:16:44;;;;;;;15.20;1.33;;;;;;;;;;5135439;27;20380;-79
2022/01/21 06:19:11;;;;;;;19.77;2.30;;;;;;;;;;5135394;27;20176;-80
2022/01/21 06:21:37;;;;;;;10.63;1.58;;;;;;;;;;5135611;27;20086;-79
2022/01/21 06:24:03;;;;;;;14.02;1.70;;;;;;;;;;5135833;27;20042;-79
2022/01/21 06:26:29;;;;;;;13.57;1.80;;;;;;;;;;5135380;27;20114;-79
2022/01/21 06:28:56;;;;;;;18.55;2.00;;;;;;;;;;5135509;27;20043;-79
2022/01/21 06:31:23;;;;;;;10.50;1.45;;;;;;;;;;5117230;27;20122;-79
2022/01/21 06:33:49;;;;;;;10.63;1.50;;;;;;;;;;5135163;27;20595;-79
2022/01/21 06:36:15;;;;;;;15.52;2.00;;;;;;;;;;5116650;27;20039;-77
2022/01/21 06:38:42;;;;;;;18.92;1.83;;;;;;;;;;5134832;27;20479;-78
2022/01/21 06:41:08;;;;;;;13.75;2.05;;;;;;;;;;5134985;27;20094;-78
2022/01/21 06:43:34;;;;;;;15.48;1.60;;;;;;;;;;5134922;27;20130;-79
2022/01/21 06:46:00;;;;;;;17.70;1.85;;;;;;;;;;5135071;27;20047;-79
2022/01/21 06:48:26;;;;;;;10.57;1.45;;;;;;;;;;5134699;27;20103;-79
2022/01/21 06:50:52;;;;;;;19.40;2.22;;;;;;;;;;5134580;27;20047;-79
2022/01/21 06:53:19;;;;;;;15.95;2.00;;;;;;;;;;5134470;27;20082;-79
2022/01/21 06:55:46;;;;;;;13.52;1.65;;;;;;;;;;5116624;27;20532;-79
2022/01/21 06:58:12;;;;;;;17.75;1.95;;;;;;;;;;5134742;27;20122;-79
2022/01/21 07:00:38;;;;;;;15.43;1.80;;;;;;;;;;5135030;27;20043;-79
2022/01/21 07:03:04;;;;;;;15.68;1.60;;;;;;;;;;5116376;27;20039;-79
2022/01/21 07:05:30;;;;;;;13.75;1.85;;;;;;;;;;5134370;27;20061;-79
2022/01/21 07:07:58;;;;;;;16.23;1.88;;;;;;;;;;5134280;27;20134;-79
2022/01/21 07:10:24;;;;;;;12.60;1.98;;;;;;;;;;5134470;27;20047;-78
2022/01/21 07:12:50;;;;;;;19.58;2.22;;;;;;;;;;5134473;27;20084;-78
2022/01/21 07:15:19;;;;;;;16.63;2.45;;;;;;;;;;5134445;27;20106;-78
2022/01/21 07:17:45;;;;;;;16.52;1.73;;;;;;;;;;5134340;27;20054;-78
2022/01/21 07:20:12;;;;;;;15.00;2.17;;;;;;;;;;5115878;27;20053;-78
2022/01/21 07:22:38;;;;;;;22.45;1.95;;;;;;;;;;5134049;27;20379;-79
2022/01/21 07:25:05;;;;;;;12.80;1.60;;;;;;;;;;5134102;27;20043;-79
2022/01/21 07:27:31;;;;;;;12.57;2.03;;;;;;;;;;5115186;27;20434;-78
2022/01/21 07:29:57;;;;;;;14.88;1.60;;;;;;;;;;5133264;27;20043;-79
2022/01/21 07:32:23;;;;;;;17.20;1.67;;;;;;;;;;5115020;27;20081;-79
2022/01/21 07:34:50;;;;;;;21.95;2.20;;;;;;;;;;5133594;27;20058;-79
2022/01/21 07:37:16;;;;;;;11.30;1.70;;;;;;;;;;5133306;27;20476;-79
2022/01/21 07:39:42;;;;;;;13.18;1.60;;;;;;;;;;5115530;27;20035;-79
2022/01/21 07:42:09;;;;;;;13.07;1.67;;;;;;;;;;5133720;27;20384;-79
2022/01/21 07:44:35;;;;;;;17.02;1.80;;;;;;;;;;5133517;27;20078;-79
2022/01/21 07:47:01;;;;;;;20.20;1.88;;;;;;;;;;5098579;27;20047;-79
2022/01/21 07:49:28;;;;;;;17.40;2.00;;;;;;;;;;5133511;27;20050;-79
2022/01/21 07:51:54;;;;;;;14.80;2.08;;;;;;;;;;5115222;27;20034;-79
2022/01/21 07:54:20;;;;;;;16.30;1.58;;;;;;;;;;5133716;27;20074;-79
2022/01/21 07:56:46;;;;;;;19.83;1.80;;;;;;;;;;5133638;27;20131;-79
2022/01/21 07:59:14;;;;;;;15.23;1.73;;;;;;;;;;5115510;27;20054;-79
2022/01/21 08:01:40;;;;;;;17.25;1.90;;;;;;;;;;5133582;27;20046;-79
2022/01/21 08:04:06;;;;;;;15.90;1.60;;;;;;;;;;5133375;27;20051;-79
2022/01/21 08:06:33;;;;;;;15.40;1.88;;;;;;;;;;5133207;27;20047;-78
2022/01/21 08:09:00;;;;;;;17.40;2.25;;;;;;;;;;5133179;27;20110;-79
2022/01/21 08:11:26;;;;;;;17.13;2.20;;;;;;;;;;5115219;28;20043;-78
2022/01/21 08:13:52;;;;;;;23.73;1.98;;;;;;;;;;5133316;28;20056;-79
2022/01/21 08:16:19;;;;;;;15.48;2.13;;;;;;;;;;5133348;28;20392;-79
2022/01/21 08:18:45;;;;;;;20.10;2.03;;;;;;;;;;5133288;28;20126;-79
2022/01/21 08:21:18;;;;;;;25.40;2.20;;;;;;;;;;5133321;28;20131;-79
2022/01/21 08:23:44;;;;;;;16.08;1.83;;;;;;;;;;5115194;28;20043;-79
2022/01/21 08:26:10;;;;;;;18.45;2.33;;;;;;;;;;5133396;28;20039;-78
2022/01/21 08:28:36;;;;;;;18.90;2.22;;;;;;;;;;5133378;28;20111;-79
2022/01/21 08:31:02;;;;;;;21.40;2.33;;;;;;;;;;5098107;28;20043;-79
2022/01/21 08:33:28;;;;;;;15.60;2.20;;;;;;;;;;5133243;28;20039;-79
2022/01/21 08:35:55;;;;;;;18.48;1.92;;;;;;;;;;5114825;28;20045;-79
2022/01/21 08:38:21;;;;;;;16.08;2.30;;;;;;;;;;5133284;28;20476;-79
2022/01/21 08:40:48;;;;;;;21.10;2.40;;;;;;;;;;5133403;28;20050;-79
2022/01/21 08:43:14;;;;;;;21.83;4.20;;;;;;;;;;5115020;28;20139;-79
2022/01/21 08:45:40;;;;;;;21.95;4.07;;;;;;;;;;5114806;28;20139;-79
2022/01/21 08:48:07;;;;;;;18.35;2.92;;;;;;;;;;5114628;28;20480;-80
2022/01/21 08:50:33;;;;;;;16.40;3.53;;;;;;;;;;5133273;28;20424;-80
2022/01/21 08:53:35;;;;;;;18.25;2.53;;;;;;;;;;5132906;28;20092;-79
2022/01/21 08:55:54;;;;;;;20.13;2.30;;;;;;;;;;5132678;28;20043;-80
2022/01/21 08:58:21;;;;;;;20.70;2.42;;;;;;;;;;5132933;28;20039;-79
2022/01/21 09:00:47;;;;;;;17.77;2.75;;;;;;;;;;5133176;28;20035;-80
2022/01/21 09:03:13;;;;;;;16.95;2.47;;;;;;;;;;5133144;28;20039;-80
2022/01/21 09:05:39;;;;;;;17.05;2.80;;;;;;;;;;5132945;28;20396;-80
2022/01/21 09:08:05;;;;;;;16.48;2.42;;;;;;;;;;5132921;28;20137;-79
2022/01/21 09:10:31;;;;;;;18.70;2.58;;;;;;;;;;5132726;28;20078;-79
2022/01/21 09:12:57;;;;;;;22.58;2.88;;;;;;;;;;5097826;28;20050;-80
2022/01/21 09:15:25;;;;;;;18.85;2.95;;;;;;;;;;5114704;28;20043;-80
2022/01/21 09:18:02;;;;;;;16.00;2.53;;;;;;;;;;5133466;27;20103;-79
2022/01/21 09:20:28;;;;;;;14.52;2.60;;;;;;;;;;5118303;27;20035;-80
2022/01/21 09:22:54;;;;;;;16.45;2.90;;;;;;;;;;5118295;27;20166;-80
2022/01/21 09:25:20;;;;;;;25.10;3.38;;;;;;;;;;5136399;27;20043;-80
2022/01/21 09:27:46;;;;;;;15.18;2.60;;;;;;;;;;5136466;27;20170;-80
2022/01/21 09:30:13;;;;;;;17.92;2.55;;;;;;;;;;5136505;27;20043;-80
2022/01/21 09:32:39;;;;;;;21.08;2.90;;;;;;;;;;5136350;27;20047;-80
2022/01/21 09:35:06;;;;;;;23.27;3.00;;;;;;;;;;5118003;27;20042;-79
2022/01/21 09:37:32;;;;;;;24.52;2.25;;;;;;;;;;5117443;27;20043;-81
2022/01/21 09:39:58;;;;;;;20.77;2.58;;;;;;;;;;5117741;27;20054;-81
2022/01/21 09:42:25;;;;;;;19.20;2.55;;;;;;;;;;5135986;27;20506;-81
2022/01/21 09:44:52;;;;;;;22.20;2.72;;;;;;;;;;5136111;27;20046;-80
2022/01/21 09:47:19;;;;;;;14.10;2.65;;;;;;;;;;5136131;27;20039;-80
2022/01/21 09:49:46;;;;;;;17.02;2.85;;;;;;;;;;5117606;27;20039;-80
2022/01/21 09:52:14;;;;;;;17.23;2.83;;;;;;;;;;5135838;27;20121;-79
2022/01/21 09:54:48;;;;;;;15.55;2.50;;;;;;;;;;5117784;27;20467;-78
2022/01/21 09:57:18;;;;;;;18.00;2.58;;;;;;;;;;5135824;27;20043;-81
2022/01/21 09:59:45;;;;;;;21.70;2.22;;;;;;;;;;5135711;27;20047;-77
2022/01/21 10:02:11;;;;;;;19.90;3.13;;;;;;;;;;5135755;27;20384;-81
2022/01/21 10:04:46;;;;;;;19.50;2.63;;;;;;;;;;5135603;27;20433;-80
2022/01/21 10:07:15;;;;;;;16.63;2.47;;;;;;;;;;5135543;27;20122;-80
2022/01/21 10:09:43;;;;;;;23.85;3.03;;;;;;;;;;5135644;27;20047;-81
2022/01/21 10:12:09;;;;;;;20.00;2.90;;;;;;;;;;5135628;27;20050;-81
2022/01/21 10:14:37;;;;;;;22.08;2.60;;;;;;;;;;5135599;27;20526;-81
2022/01/21 10:17:03;;;;;;;16.35;2.38;;;;;;;;;;5117006;27;20130;-82
2022/01/21 10:19:31;;;;;;;20.63;2.80;;;;;;;;;;5135378;27;20034;-81
2022/01/21 10:22:04;;;;;;;16.60;2.47;;;;;;;;;;5100004;27;20043;-81
2022/01/21 10:24:31;;;;;;;23.23;3.08;;;;;;;;;;5117015;27;20082;-81
2022/01/21 10:26:58;;;;;;;17.83;2.90;;;;;;;;;;5117038;27;20096;-81
2022/01/21 10:29:25;;;;;;;19.20;2.58;;;;;;;;;;5134749;27;20046;-81
2022/01/21 10:31:52;;;;;;;20.30;2.72;;;;;;;;;;5135167;27;20079;-80
2022/01/21 10:34:24;;;;;;;21.88;2.80;;;;;;;;;;5135142;27;20041;-81
2022/01/21 10:36:55;;;;;;;;;;;;;;;;;;5135642;27;20125;-81
2022/01/21 10:39:29;;;;;;;24.30;2.70;;;;;;;;;;5116828;27;19915;-81
2022/01/21 10:41:57;;;;;;;20.45;2.65;;;;;;;;;;5116817;27;20055;-81
2022/01/21 10:44:25;;;;;;;26.10;3.20;;;;;;;;;;5116585;27;20031;-80
2022/01/21 10:47:04;;;;;;;19.50;2.67;;;;;;;;;;5116644;27;20429;-81
2022/01/21 10:49:30;;;;;;;17.35;2.85;;;;;;;;;;5134957;27;20042;-81
2022/01/21 10:51:57;;;;;;;23.85;2.75;;;;;;;;;;5116648;27;20039;-82
2022/01/21 10:54:29;;;;;;;18.85;2.92;;;;;;;;;;5116463;27;20465;-81
2022/01/21 10:57:10;;;;;;;19.95;2.72;;;;;;;;;;5134506;27;20122;-81
2022/01/21 10:59:46;;;;;;;22.60;3.50;;;;;;;;;;5134752;27;20039;-81
2022/01/21 11:02:13;;;;;;;19.85;2.35;;;;;;;;;;5134689;27;20429;-80
2022/01/21 11:04:45;;;;;;;21.33;3.05;;;;;;;;;;5134426;27;20047;-82
2022/01/21 11:07:15;;;;;;;25.65;3.55;;;;;;;;;;5134215;27;20043;-82
2022/01/21 11:09:41;;;;;;;22.05;2.60;;;;;;;;;;5116082;27;20054;-82
2022/01/21 11:12:07;;;;;;;21.33;2.67;;;;;;;;;;5134598;27;20047;-82
2022/01/21 11:14:34;;;;;;;22.73;2.75;;;;;;;;;;5115959;27;20047;-82
2022/01/21 11:17:16;;;;;;;22.17;3.35;;;;;;;;;;5134323;27;20495;-82
2022/01/21 11:20:01;;;;;;;21.10;2.83;;;;;;;;;;5134156;27;20081;-80
2022/01/21 11:22:27;;;;;;;19.60;2.38;;;;;;;;;;5116134;27;20047;-81
2022/01/21 11:24:55;;;;;;;16.48;2.10;;;;;;;;;;5099137;27;20054;-81
2022/01/21 11:27:21;;;;;;;21.73;2.42;;;;;;;;;;5115729;27;20117;-82
2022/01/21 11:29:49;;;;;;;20.58;2.75;;;;;;;;;;5134036;27;20039;-82
2022/01/21 11:32:15;;;;;;;16.77;2.60;;;;;;;;;;5133716;27;20039;-81
2022/01/21 11:34:42;;;;;;;23.92;3.05;;;;;;;;;;5115614;27;20422;-82
2022/01/21 11:37:09;;;;;;;19.67;2.83;;;;;;;;;;5115342;27;20532;-81
2022/01/21 11:39:36;;;;;;;16.02;2.75;;;;;;;;;;5133788;27;20050;-83
2022/01/21 11:42:04;;;;;;;22.50;2.88;;;;;;;;;;5133214;27;20043;-82
2022/01/21 11:44:31;;;;;;;20.95;2.55;;;;;;;;;;5133888;27;20046;-82
2022/01/21 11:47:28;;;;;;;18.45;3.15;;;;;;;;;;5115317;27;20099;-82
2022/01/21 11:49:55;;;;;;;21.13;3.00;;;;;;;;;;5133781;27;20047;-82
2022/01/21 11:52:22;;;;;;;17.42;3.22;;;;;;;;;;5133794;27;20098;-81
2022/01/21 11:54:49;;;;;;;26.63;3.30;;;;;;;;;;5115270;27;20050;-81
2022/01/21 11:57:16;;;;;;;25.70;3.03;;;;;;;;;;5133537;27;20379;-81
2022/01/21 12:00:02;;;;;;;17.85;2.60;;;;;;;;;;5115386;27;20180;-82
2022/01/21 12:02:29;;;;;;;21.10;2.80;;;;;;;;;;5133615;27;20125;-81
2022/01/21 12:04:56;;;;;;;19.40;3.65;;;;;;;;;;5133628;27;20373;-81
2022/01/21 12:07:44;;;;;;;18.90;2.92;;;;;;;;;;5133341;27;20047;-81
2022/01/21 12:10:11;;;;;;;22.35;2.80;;;;;;;;;;5133725;27;20051;-80
2022/01/21 12:20:51;;;;;;;15.32;2.42;;;;;;;;;;5133498;28;19972;-81
2022/01/21 12:23:22;;;;;;;19.35;2.92;;;;;;;;;;5115408;28;20126;-81
2022/01/21 12:26:07;;;;;;;20.30;3.05;;;;;;;;;;5115058;28;20039;-81
2022/01/21 12:28:33;;;;;;;25.40;3.42;;;;;;;;;;5133277;28;20495;-80
2022/01/21 12:30:59;;;;;;;21.00;2.90;;;;;;;;;;5115443;28;20135;-81
2022/01/21 12:33:49;;;;;;;23.48;3.42;;;;;;;;;;5133381;28;20043;-80
2022/01/21 12:36:15;;;;;;;21.40;3.00;;;;;;;;;;5133273;28;20047;-81
2022/01/21 12:41:17;;;;;;;26.40;3.70;;;;;;;;;;5133034;28;20112;-81
2022/01/21 12:43:53;;;;;;;25.20;3.63;;;;;;;;;;5133389;28;20188;-81
2022/01/21 12:46:28;;;;;;;19.63;3.05;;;;;;;;;;5114765;28;20490;-82
2022/01/21 12:48:56;;;;;;;23.95;3.42;;;;;;;;;;5114947;28;20082;-81
2022/01/21 12:56:45;;;;;;;21.10;3.03;;;;;;;;;;5136964;27;20047;-81
2022/01/21 12:59:15;;;;;;;21.33;3.10;;;;;;;;;;5137000;27;20046;-82
2022/01/21 13:01:42;;;;;;;23.37;2.93;;;;;;;;;;5136959;27;20460;-82
2022/01/21 13:04:26;;;;;;;23.13;2.80;;;;;;;;;;5136652;27;20273;-82
2022/01/21 13:06:57;;;;;;;16.67;2.40;;;;;;;;;;5137148;27;20092;-81
2022/01/21 13:09:34;;;;;;;17.75;2.60;;;;;;;;;;5095826;28;20040;-81
2022/01/21 13:12:04;;;;;;;25.13;2.83;;;;;;;;;;5095814;28;20036;-82
2022/01/21 13:17:01;;;;;;;20.33;2.60;;;;;;;;;;5095827;28;20050;-83
2022/01/21 13:19:28;;;;;;;20.52;2.53;;;;;;;;;;5095885;28;20047;-82
2022/01/21 13:21:54;;;;;;;23.58;2.42;;;;;;;;;;5095632;28;20043;-81
2022/01/21 13:24:29;;;;;;;15.05;2.17;;;;;;;;;;5095561;28;20043;-81
2022/01/21 13:26:56;;;;;;;15.75;2.38;;;;;;;;;;5095355;28;20048;-83
2022/01/21 13:29:35;;;;;;;17.27;2.28;;;;;;;;;;5095708;28;20430;-82
2022/01/21 13:32:02;;;;;;;13.25;1.92;;;;;;;;;;5095424;28;20044;-81
2022/01/21 13:34:32;;;;;;;13.80;2.20;;;;;;;;;;5095319;28;20079;-82
2022/01/21 13:37:02;;;;;;;18.85;1.70;;;;;;;;;;5094222;28;20051;-81
2022/01/21 13:39:36;;;;;;;12.32;2.17;;;;;;;;;;5095022;28;20044;-83
2022/01/21 13:42:10;;;;;;;14.27;1.90;;;;;;;;;;5094290;28;20465;-82
2022/01/21 13:44:42;;;;;;;14.48;2.13;;;;;;;;;;5095045;28;20044;-82
2022/01/21 13:47:27;;;;;;;18.70;2.22;;;;;;;;;;5094036;28;20568;-82
2022/01/21 13:49:54;;;;;;;18.95;2.15;;;;;;;;;;5095020;28;20058;-82
2022/01/21 13:52:20;;;;;;;13.40;2.00;;;;;;;;;;5110861;28;20449;-82
2022/01/21 13:54:48;;;;;;;16.35;1.83;;;;;;;;;;5095134;28;20044;-81
2022/01/21 13:57:14;;;;;;;14.80;1.90;;;;;;;;;;5076849;28;20237;-82
2022/01/21 13:59:49;;;;;;;12.65;2.22;;;;;;;;;;5094977;28;20059;-81
2022/01/21 14:02:17;;;;;;;11.18;1.75;;;;;;;;;;5094716;28;20039;-82
2022/01/21 14:04:53;;;;;;;17.15;2.00;;;;;;;;;;5094326;28;20093;-82
2022/01/21 14:07:20;;;;;;;15.00;2.25;;;;;;;;;;5101283;27;20392;-82
2022/01/21 14:09:46;;;;;;;18.45;1.88;;;;;;;;;;5117489;27;20101;-81
2022/01/21 14:12:12;;;;;;;13.43;1.58;;;;;;;;;;5117311;27;20126;-81
2022/01/21 14:14:39;;;;;;;17.40;2.40;;;;;;;;;;5117364;27;20065;-82
2022/01/21 14:17:05;;;;;;;22.83;2.38;;;;;;;;;;5135354;27;20484;-80
2022/01/21 14:19:31;;;;;;;21.25;3.03;;;;;;;;;;5117444;27;20121;-80
2022/01/21 14:22:02;;;;;;;17.13;2.53;;;;;;;;;;5135519;27;20039;-80
2022/01/21 14:24:28;;;;;;;21.00;2.15;;;;;;;;;;5135397;27;20062;-82
2022/01/21 14:26:55;;;;;;;21.20;2.38;;;;;;;;;;5135262;27;20047;-82
2022/01/21 14:29:28;;;;;;;24.50;3.13;;;;;;;;;;5135317;27;20369;-81
2022/01/21 14:31:55;;;;;;;14.77;2.28;;;;;;;;;;5117026;27;20054;-81
2022/01/21 14:34:23;;;;;;;19.95;2.67;;;;;;;;;;5135453;27;20055;-81
2022/01/21 14:37:09;;;;;;;20.33;2.80;;;;;;;;;;5117048;27;20092;-81
2022/01/21 14:39:55;;;;;;;25.08;3.47;;;;;;;;;;5135108;27;20046;-82
2022/01/21 14:42:26;;;;;;;16.75;2.10;;;;;;;;;;5134692;27;20098;-81
2022/01/21 14:44:56;;;;;;;22.75;2.47;;;;;;;;;;5135080;27;20082;-82
2022/01/21 14:47:25;;;;;;;21.02;2.70;;;;;;;;;;5135007;27;20115;-81
2022/01/21 14:50:06;;;;;;;15.43;2.67;;;;;;;;;;5134959;27;20043;-81
2022/01/21 14:52:45;;;;;;;13.18;2.15;;;;;;;;;;5116757;27;20134;-82
2022/01/21 14:55:13;;;;;;;18.23;2.33;;;;;;;;;;5116330;27;20476;-81
2022/01/21 14:57:45;;;;;;;17.80;2.30;;;;;;;;;;5116485;27;20061;-82
2022/01/21 15:00:11;;;;;;;16.00;2.30;;;;;;;;;;5134498;27;20035;-81
2022/01/21 15:02:38;;;;;;;20.40;2.58;;;;;;;;;;5116421;27;20065;-81
2022/01/21 15:05:11;;;;;;;17.05;2.15;;;;;;;;;;5134473;27;20365;-81
2022/01/21 15:07:37;;;;;;;21.85;3.20;;;;;;;;;;5134381;27;20055;-81
2022/01/21 15:10:20;;;;;;;19.83;2.58;;;;;;;;;;5134532;27;20047;-81
2022/01/21 15:15:52;;;;;;;17.75;2.45;;;;;;;;;;5134387;27;20043;-81
2022/01/21 15:18:18;;;;;;;19.10;2.60;;;;;;;;;;5099049;27;20126;-81
2022/01/21 15:20:45;;;;;;;27.15;3.08;;;;;;;;;;5134100;27;20035;-80
2022/01/21 15:23:12;;;;;;;21.27;2.20;;;;;;;;;;5134299;27;20039;-79
2022/01/21 15:25:38;;;;;;;20.13;2.80;;;;;;;;;;5115720;27;20046;-81
2022/01/21 15:28:05;;;;;;;20.80;3.03;;;;;;;;;;5134397;27;20510;-81
2022/01/21 15:30:32;;;;;;;23.13;2.72;;;;;;;;;;5134078;27;20047;-79
2022/01/21 15:32:59;;;;;;;20.90;2.45;;;;;;;;;;5134022;27;20067;-81
2022/01/21 15:35:26;;;;;;;16.63;2.40;;;;;;;;;;5134028;27;20053;-81
2022/01/21 15:37:52;;;;;;;18.13;2.33;;;;;;;;;;5133865;27;20067;-82
2022/01/21 15:40:18;;;;;;;16.80;2.60;;;;;;;;;;5115426;27;20194;-82
2022/01/21 15:42:45;;;;;;;20.38;2.83;;;;;;;;;;5133957;27;20047;-74
2022/01/21 15:45:12;;;;;;;22.05;3.17;;;;;;;;;;5115783;27;20087;-80
2022/01/21 15:47:38;;;;;;;18.77;2.92;;;;;;;;;;5133944;27;20050;-82